createdAt,value
2022-12-08T00:00:29.036Z,100440.59
2022-12-08T00:05:49.872Z,100454.53
2022-12-08T00:10:51.985Z,100454.75
2022-12-08T00:16:00.765Z,100437.91
2022-12-08T00:21:03.156Z,100445.59
2022-12-08T00:26:05.573Z,100447.47
2022-12-08T00:31:10.451Z,100450.16
2022-12-08T00:36:14.626Z,100450.97
2022-12-08T00:41:39.964Z,100448.47
2022-12-08T00:46:42.498Z,100458.22
2022-12-08T00:51:44.824Z,100461.97
2022-12-08T00:56:46.971Z,100455.72
2022-12-08T01:01:49.161Z,100461.09
2022-12-08T01:06:51.596Z,100455.91
2022-12-08T01:11:53.705Z,100456.16
2022-12-08T01:16:55.880Z,100464.31
2022-12-08T01:21:58.083Z,100467.66
2022-12-08T01:27:00.163Z,100470.13
2022-12-08T01:32:02.483Z,100472.62
2022-12-08T01:37:04.570Z,100469.69
2022-12-08T01:42:10.198Z,100457.59
2022-12-08T01:47:12.373Z,100458.41
2022-12-08T01:52:20.563Z,100459.19
2022-12-08T01:57:34.027Z,100450.78
2022-12-08T02:02:49.615Z,100454.69
2022-12-08T02:07:52.264Z,100452.72
2022-12-08T02:12:58.164Z,100444.69
2022-12-08T02:18:19.744Z,100439.69
2022-12-08T02:23:45.378Z,100447.09
2022-12-08T02:29:02.567Z,100443.38
2022-12-08T02:34:10.643Z,100435.75
2022-12-08T02:39:54.312Z,100420.09
2022-12-08T02:45:11.902Z,100427.47
2022-12-08T02:50:15.649Z,100428.31
2022-12-08T02:55:28.064Z,100432.09
2022-12-08T03:00:53.539Z,100417.75
2022-12-08T03:06:01.523Z,100415.03
2022-12-08T03:11:20.410Z,100408.38
2022-12-08T03:16:27.428Z,100405.22
2022-12-08T03:21:32.920Z,100395.00
2022-12-08T03:26:43.773Z,100401.25
2022-12-08T03:31:56.146Z,100411.41
2022-12-08T03:37:00.960Z,100404.53
2022-12-08T03:42:03.091Z,100398.50
2022-12-08T03:47:05.233Z,100402.41
2022-12-08T03:52:07.304Z,100409.47
2022-12-08T03:57:09.464Z,100401.53
2022-12-08T04:02:11.601Z,100405.28
2022-12-08T04:07:13.738Z,100393.59
2022-12-08T04:12:15.888Z,100391.72
2022-12-08T04:17:17.958Z,100399.81
2022-12-08T04:22:20.090Z,100383.34
2022-12-08T04:27:22.262Z,100385.13
2022-12-08T04:32:24.336Z,100383.84
2022-12-08T04:37:27.819Z,100378.38
2022-12-08T04:42:30.004Z,100381.09
2022-12-08T04:47:32.274Z,100376.50
2022-12-08T04:52:34.699Z,100383.19
2022-12-08T04:57:36.841Z,100373.34
2022-12-08T05:02:39.277Z,100366.69
2022-12-08T05:07:41.409Z,100381.72
2022-12-08T05:12:43.552Z,100382.94
2022-12-08T05:17:45.678Z,100383.75
2022-12-08T05:22:47.977Z,100386.69
2022-12-08T05:27:50.150Z,100388.34
2022-12-08T05:32:56.657Z,100393.56
2022-12-08T05:37:58.984Z,100377.31
2022-12-08T05:43:01.122Z,100381.00
2022-12-08T05:48:03.417Z,100367.88
2022-12-08T05:53:05.715Z,100360.38
2022-12-08T05:58:13.704Z,100357.22
2022-12-08T06:03:18.602Z,100367.38
2022-12-08T06:08:20.827Z,100380.56
2022-12-08T06:13:23.024Z,100376.03
2022-12-08T06:18:32.809Z,100379.56
2022-12-08T06:23:35.559Z,100392.41
2022-12-08T06:28:38.097Z,100393.84
2022-12-08T06:33:40.492Z,100384.44
2022-12-08T06:38:43.942Z,100389.81
2022-12-08T06:43:46.546Z,100395.84
2022-12-08T06:48:50.749Z,100391.00
2022-12-08T06:53:52.963Z,100390.56
2022-12-08T06:58:55.262Z,100390.25
2022-12-08T07:03:57.461Z,100395.44
2022-12-08T07:08:59.640Z,100399.75
2022-12-08T07:14:01.831Z,100396.28
2022-12-08T07:19:03.957Z,100393.47
2022-12-08T07:24:06.333Z,100388.19
2022-12-08T07:29:10.360Z,100396.50
2022-12-08T07:34:13.096Z,100395.78
2022-12-08T07:39:15.426Z,100390.69
2022-12-08T07:44:17.753Z,100384.69
2022-12-08T07:49:19.867Z,100388.12
2022-12-08T07:54:22.077Z,100394.47
2022-12-08T07:59:24.565Z,100393.53
2022-12-08T08:04:26.776Z,100382.91
2022-12-08T08:09:28.897Z,100381.53
2022-12-08T08:14:31.154Z,100387.59
2022-12-08T08:19:33.255Z,100386.13
2022-12-08T08:24:37.239Z,100378.44
2022-12-08T08:29:42.478Z,100382.13
2022-12-08T08:34:44.595Z,100375.13
2022-12-08T08:39:46.749Z,100382.78
2022-12-08T08:44:48.915Z,100377.31
2022-12-08T08:49:51.036Z,100373.50
2022-12-08T08:54:53.145Z,100375.19
2022-12-08T08:59:55.323Z,100379.91
2022-12-08T09:04:57.524Z,100376.56
2022-12-08T09:10:01.909Z,100363.44
2022-12-08T09:15:05.781Z,100361.75
2022-12-08T09:20:08.558Z,100366.66
2022-12-08T09:25:10.698Z,100359.31
2022-12-08T09:30:13.113Z,100337.41
2022-12-08T09:35:15.316Z,100344.94
2022-12-08T09:40:20.201Z,100345.34
2022-12-08T09:45:24.746Z,100344.22
2022-12-08T09:50:37.972Z,100344.47
2022-12-08T09:55:48.774Z,100319.91
2022-12-08T10:00:51.155Z,100310.66
2022-12-08T10:06:10.970Z,100305.50
2022-12-08T10:11:24.621Z,100292.00
2022-12-08T10:16:42.327Z,100308.41
2022-12-08T10:21:45.236Z,100325.44
2022-12-08T10:26:47.625Z,100323.34
2022-12-08T10:31:49.778Z,100309.47
2022-12-08T10:36:58.135Z,100307.72
2022-12-08T10:42:02.801Z,100282.69
2022-12-08T10:47:13.430Z,100277.63
2022-12-08T10:52:25.299Z,100259.75
2022-12-08T10:57:27.415Z,100258.72
2022-12-08T11:02:29.757Z,100247.69
2022-12-08T11:07:32.062Z,100232.84
2022-12-08T11:12:36.210Z,100223.69
2022-12-08T11:17:41.533Z,100221.34
2022-12-08T11:22:45.763Z,100220.78
2022-12-08T11:27:50.404Z,100210.78
2022-12-08T11:33:00.078Z,100198.00
2022-12-08T11:38:20.510Z,100193.47
2022-12-08T11:43:48.651Z,100187.91
2022-12-08T11:49:05.953Z,100160.06
2022-12-08T11:54:17.748Z,100145.81
2022-12-08T11:59:26.429Z,100133.97
2022-12-08T12:05:02.348Z,100144.34
2022-12-08T12:10:23.052Z,100137.88
2022-12-08T12:15:46.564Z,100131.72
2022-12-08T12:20:51.651Z,100141.38
2022-12-08T12:26:02.563Z,100141.50
2022-12-08T12:31:16.318Z,100141.56
2022-12-08T12:36:18.792Z,100140.78
2022-12-08T12:41:28.058Z,100145.91
2022-12-08T12:46:38.335Z,100143.94
2022-12-08T12:51:47.764Z,100145.13
2022-12-08T12:56:53.488Z,100144.03
2022-12-08T13:01:56.688Z,100134.44
2022-12-08T13:07:00.005Z,100129.34
2022-12-08T13:12:10.467Z,100115.22
2022-12-08T13:17:16.536Z,100123.97
2022-12-08T13:22:46.738Z,100113.47
2022-12-08T13:27:54.101Z,100121.69
2022-12-08T13:33:18.479Z,100115.97
2022-12-08T13:38:26.496Z,100114.50
2022-12-08T13:44:20.102Z,100113.75
2022-12-08T13:51:15.964Z,100119.56
2022-12-08T13:55:26.857Z,100127.47
2022-12-08T14:00:13.842Z,100117.31
2022-12-08T14:05:20.393Z,100107.78
2022-12-08T14:10:32.201Z,100117.84
2022-12-08T14:15:38.171Z,100111.59
2022-12-08T14:21:12.220Z,100110.94
2022-12-08T14:26:06.597Z,100110.34
2022-12-08T14:31:09.152Z,100114.47
2022-12-08T14:36:15.807Z,100112.50
2022-12-08T14:41:27.867Z,100111.75
2022-12-08T14:46:30.171Z,100120.34
2022-12-08T14:51:33.350Z,100110.59
2022-12-08T14:56:43.439Z,100120.66
2022-12-08T15:01:48.807Z,100107.38
2022-12-08T15:06:59.470Z,100123.78
2022-12-08T15:12:07.538Z,100108.59
2022-12-08T15:17:30.181Z,100104.47
2022-12-08T15:22:32.477Z,100096.69
2022-12-08T15:27:42.368Z,100091.41
2022-12-08T15:32:52.840Z,100098.03
2022-12-08T15:37:54.934Z,100104.78
2022-12-08T15:42:57.072Z,100093.38
2022-12-08T15:47:59.175Z,100087.16
2022-12-08T15:53:01.326Z,100067.91
2022-12-08T15:58:51.841Z,100071.97
2022-12-08T16:09:06.346Z,100078.22
2022-12-08T16:15:22.923Z,100067.91
2022-12-08T16:19:36.361Z,100067.25
2022-12-08T16:24:38.433Z,100072.19
2022-12-08T16:29:46.974Z,100076.00
2022-12-08T16:34:50.202Z,100072.19
2022-12-08T16:39:54.798Z,100078.22
2022-12-08T16:44:56.928Z,100079.06
2022-12-08T16:49:59.099Z,100064.78
2022-12-08T16:55:01.654Z,100061.47
2022-12-08T17:00:07.436Z,100066.97
2022-12-08T17:05:13.949Z,100079.91
2022-12-08T17:10:19.280Z,100084.28
2022-12-08T17:15:24.216Z,100078.38
2022-12-08T17:20:28.418Z,100065.31
2022-12-08T17:25:30.607Z,100075.81
2022-12-08T17:30:32.722Z,100067.75
2022-12-08T17:35:35.988Z,100064.31
2022-12-08T17:40:38.180Z,100075.84
2022-12-08T17:45:44.776Z,100078.41
2022-12-08T17:50:47.927Z,100077.06
2022-12-08T17:55:54.987Z,100062.97
2022-12-08T18:00:57.138Z,100063.41
2022-12-08T18:06:08.168Z,100059.09
2022-12-08T18:11:21.144Z,100064.72
2022-12-08T18:16:26.851Z,100064.72
2022-12-08T18:21:29.302Z,100057.00
2022-12-08T18:26:31.939Z,100048.84
2022-12-08T18:31:34.207Z,100044.00
2022-12-08T18:36:36.391Z,100042.91
2022-12-08T18:41:38.537Z,100051.56
2022-12-08T18:46:40.803Z,100050.59
2022-12-08T18:51:43.960Z,100057.59
2022-12-08T18:56:46.076Z,100060.25
2022-12-08T19:01:48.647Z,100049.59
2022-12-08T19:06:51.425Z,100066.44
2022-12-08T19:11:53.614Z,100035.06
2022-12-08T19:16:57.647Z,100046.78
2022-12-08T19:21:59.849Z,100048.69
2022-12-08T19:27:05.865Z,100053.81
2022-12-08T19:32:08.054Z,100046.47
2022-12-08T19:37:12.586Z,100052.00
2022-12-08T19:42:37.496Z,100064.28
2022-12-08T19:47:40.166Z,100057.69
2022-12-08T19:52:43.140Z,100045.25
2022-12-08T19:57:45.227Z,100051.16
2022-12-08T20:02:47.845Z,100048.44
2022-12-08T20:07:50.709Z,100038.22
2022-12-08T20:13:12.858Z,100044.00
2022-12-08T20:18:16.097Z,100040.59
2022-12-08T20:23:20.295Z,100032.66
2022-12-08T20:28:23.763Z,100035.81
2022-12-08T20:33:26.342Z,100024.03
2022-12-08T20:38:29.206Z,100020.56
2022-12-08T20:43:31.321Z,100021.03
2022-12-08T20:48:33.714Z,100030.53
2022-12-08T20:53:35.802Z,100044.22
2022-12-08T20:58:37.954Z,100032.69
2022-12-08T21:03:40.491Z,100049.12
2022-12-08T21:08:42.994Z,100043.91
2022-12-08T21:13:45.720Z,100047.47
2022-12-08T21:18:47.871Z,100044.56
2022-12-08T21:23:54.198Z,100044.22
2022-12-08T21:28:58.906Z,100045.72
2022-12-08T21:34:02.174Z,100057.00
2022-12-08T21:39:11.220Z,100042.47
2022-12-08T21:44:15.604Z,100039.38
2022-12-08T21:49:20.828Z,100018.09
2022-12-08T21:54:23.037Z,100008.28
2022-12-08T21:59:25.191Z,100006.37
2022-12-08T22:04:28.039Z,100021.81
2022-12-08T22:09:30.547Z,100024.78
2022-12-08T22:14:32.989Z,100028.25
2022-12-08T22:19:35.548Z,100023.59
2022-12-08T22:24:37.846Z,100019.87
2022-12-08T22:29:39.975Z,100017.97
2022-12-08T22:34:42.204Z,100026.41
2022-12-08T22:39:44.382Z,100040.44
2022-12-08T22:44:46.737Z,100037.19
2022-12-08T22:49:49.285Z,100023.78
2022-12-08T22:54:51.366Z,100022.72
2022-12-08T22:59:53.724Z,100031.38
2022-12-08T23:04:56.881Z,100027.81
2022-12-08T23:10:02.217Z,100034.75
2022-12-08T23:15:05.061Z,100027.31
2022-12-08T23:20:08.553Z,100020.66
2022-12-08T23:25:10.880Z,100025.44
2022-12-08T23:30:14.008Z,100026.66
2022-12-08T23:35:16.230Z,100009.56
2022-12-08T23:40:18.348Z,100007.56
2022-12-08T23:45:20.475Z,100020.84
2022-12-08T23:50:22.971Z,100024.53
2022-12-08T23:55:25.153Z,100018.88
